createdAt,value
2018-09-09T00:01:42.712Z,95.40
2018-09-09T00:04:11.776Z,95.40
2018-09-09T00:06:40.774Z,95.50
2018-09-09T00:09:10.020Z,95.40
2018-09-09T00:11:40.186Z,95.40
2018-09-09T00:14:09.432Z,95.20
2018-09-09T00:16:38.591Z,95.20
2018-09-09T00:19:07.555Z,95.20
2018-09-09T00:21:36.604Z,95.30
2018-09-09T00:24:06.039Z,95.40
2018-09-09T00:26:35.068Z,95.30
2018-09-09T00:29:04.269Z,95.30
2018-09-09T00:31:33.324Z,95.30
2018-09-09T00:34:03.343Z,95.30
2018-09-09T00:36:32.416Z,95.30
2018-09-09T00:39:02.379Z,95.20
2018-09-09T00:41:32.084Z,95.10
2018-09-09T00:44:01.117Z,95.10
2018-09-09T00:46:30.164Z,95.20
2018-09-09T00:49:04.321Z,95.20
2018-09-09T00:51:38.560Z,95.20
2018-09-09T00:54:07.622Z,95.30
2018-09-09T00:56:36.612Z,95.30
2018-09-09T00:59:06.623Z,95.30
2018-09-09T01:01:35.693Z,95.30
2018-09-09T01:04:04.785Z,95.30
2018-09-09T01:06:33.904Z,95.30
2018-09-09T01:09:04.266Z,95.40
2018-09-09T01:11:34.912Z,95.40
2018-09-09T01:14:04.148Z,95.60
2018-09-09T01:16:33.525Z,95.70
2018-09-09T01:19:02.553Z,95.80
2018-09-09T01:21:32.905Z,96.00
2018-09-09T01:24:02.803Z,95.90
2018-09-09T01:26:32.876Z,96.00
2018-09-09T01:29:02.828Z,96.00
2018-09-09T01:31:33.021Z,96.10
2018-09-09T01:34:01.997Z,96.00
2018-09-09T01:36:31.019Z,96.00
2018-09-09T01:39:00.537Z,96.00
2018-09-09T01:41:29.588Z,95.90
2018-09-09T01:43:59.087Z,95.90
2018-09-09T01:46:28.088Z,95.90
2018-09-09T01:48:57.125Z,95.90
2018-09-09T01:51:26.100Z,96.00
2018-09-09T01:53:55.147Z,96.10
2018-09-09T01:56:25.156Z,96.10
2018-09-09T01:58:55.761Z,96.10
2018-09-09T02:01:24.828Z,96.20
2018-09-09T02:03:53.832Z,96.10
2018-09-09T02:06:23.112Z,96.60
2018-09-09T02:08:52.511Z,96.30
2018-09-09T02:11:21.554Z,96.40
2018-09-09T02:13:50.724Z,96.30
2018-09-09T02:16:20.849Z,96.50
2018-09-09T02:18:50.892Z,96.50
2018-09-09T02:21:19.892Z,96.40
2018-09-09T02:23:49.474Z,96.40
2018-09-09T02:26:18.548Z,96.40
2018-09-09T02:28:47.552Z,96.30
2018-09-09T02:31:16.560Z,96.30
2018-09-09T02:33:45.575Z,96.30
2018-09-09T02:36:14.635Z,96.30
2018-09-09T02:38:43.664Z,96.30
2018-09-09T02:41:12.708Z,96.30
2018-09-09T02:43:41.749Z,96.30
2018-09-09T02:46:11.424Z,96.30
2018-09-09T02:48:40.383Z,96.20
2018-09-09T02:51:09.403Z,96.20
2018-09-09T02:53:38.385Z,96.30
2018-09-09T02:56:10.743Z,96.40
2018-09-09T02:58:39.693Z,96.30
2018-09-09T03:01:08.704Z,96.30
2018-09-09T03:03:37.753Z,96.20
2018-09-09T03:06:06.787Z,96.10
2018-09-09T03:08:35.848Z,95.80
2018-09-09T03:11:09.896Z,95.80
2018-09-09T03:13:39.182Z,95.80
2018-09-09T03:16:08.208Z,95.60
2018-09-09T03:18:37.176Z,95.50
2018-09-09T03:21:06.315Z,95.50
2018-09-09T03:23:35.525Z,95.60
2018-09-09T03:26:04.581Z,95.40
2018-09-09T03:28:34.192Z,95.40
2018-09-09T03:31:03.165Z,95.50
2018-09-09T03:33:32.260Z,95.50
2018-09-09T03:36:01.220Z,95.40
2018-09-09T03:38:30.840Z,95.50
2018-09-09T03:40:59.867Z,95.60
2018-09-09T03:43:28.867Z,95.50
2018-09-09T03:45:57.831Z,95.60
2018-09-09T03:48:26.840Z,95.60
2018-09-09T03:50:55.809Z,95.70
2018-09-09T03:53:24.910Z,95.80
2018-09-09T03:55:53.896Z,95.70
2018-09-09T03:58:22.882Z,95.60
2018-09-09T04:00:51.995Z,95.60
2018-09-09T04:03:21.116Z,95.60
2018-09-09T04:05:50.195Z,95.40
2018-09-09T04:08:19.168Z,95.30
2018-09-09T04:10:48.167Z,95.30
2018-09-09T04:13:17.192Z,95.30
2018-09-09T04:15:46.173Z,95.30
2018-09-09T04:18:15.174Z,95.20
2018-09-09T04:20:44.169Z,95.20
2018-09-09T04:23:13.148Z,95.30
2018-09-09T04:25:42.106Z,95.30
2018-09-09T04:28:11.188Z,95.40
2018-09-09T04:30:40.239Z,95.40
2018-09-09T04:33:09.239Z,95.40
2018-09-09T04:35:38.269Z,95.30
2018-09-09T04:38:07.364Z,95.40
2018-09-09T04:40:36.472Z,95.40
2018-09-09T04:43:05.513Z,95.40
2018-09-09T04:45:34.574Z,95.30
2018-09-09T04:48:03.588Z,95.20
2018-09-09T04:50:32.580Z,95.10
2018-09-09T04:53:01.620Z,95.20
2018-09-09T04:55:30.619Z,95.20
2018-09-09T04:57:59.633Z,95.30
2018-09-09T05:00:28.656Z,95.40
2018-09-09T05:02:57.624Z,95.40
2018-09-09T05:05:27.476Z,95.40
2018-09-09T05:07:56.565Z,95.40
2018-09-09T05:10:25.524Z,95.40
2018-09-09T05:12:54.532Z,95.40
2018-09-09T05:15:23.489Z,95.30
2018-09-09T05:17:53.521Z,95.30
2018-09-09T05:20:22.580Z,95.30
2018-09-09T05:22:51.586Z,95.20
2018-09-09T05:25:20.660Z,95.10
2018-09-09T05:27:49.626Z,95.20
2018-09-09T05:30:18.878Z,95.20
2018-09-09T05:32:47.972Z,95.20
2018-09-09T05:35:17.002Z,95.20
2018-09-09T05:37:45.972Z,95.10
2018-09-09T05:40:15.332Z,95.60
2018-09-09T05:42:45.612Z,95.30
2018-09-09T05:45:14.607Z,95.00
2018-09-09T05:47:44.314Z,94.90
2018-09-09T05:50:14.569Z,95.60
2018-09-09T05:52:43.681Z,95.00
2018-09-09T05:55:12.748Z,95.30
2018-09-09T05:57:41.817Z,94.40
2018-09-09T06:00:10.872Z,93.10
2018-09-09T06:02:39.931Z,93.00
2018-09-09T06:05:08.981Z,92.60
2018-09-09T06:07:38.082Z,92.80
2018-09-09T06:10:07.169Z,93.60
2018-09-09T06:12:36.217Z,92.90
2018-09-09T06:15:05.658Z,91.10
2018-09-09T06:17:34.716Z,90.90
2018-09-09T06:20:04.066Z,91.00
2018-09-09T06:22:33.057Z,91.40
2018-09-09T06:25:02.149Z,91.70
2018-09-09T06:27:31.200Z,91.90
2018-09-09T06:30:00.316Z,92.20
2018-09-09T06:32:29.293Z,92.10
2018-09-09T06:34:58.373Z,92.20
2018-09-09T06:37:27.408Z,92.30
2018-09-09T06:39:56.407Z,92.20
2018-09-09T06:42:25.418Z,92.90
2018-09-09T06:44:54.419Z,92.70
2018-09-09T06:47:23.485Z,91.40
2018-09-09T06:49:52.459Z,90.90
2018-09-09T06:52:21.484Z,90.00
2018-09-09T06:54:50.528Z,88.00
2018-09-09T06:57:19.736Z,86.80
2018-09-09T06:59:48.876Z,87.50
2018-09-09T07:02:18.043Z,89.90
2018-09-09T07:04:47.190Z,87.20
2018-09-09T07:07:16.591Z,87.60
2018-09-09T07:09:45.773Z,88.30
2018-09-09T07:12:16.199Z,86.80
2018-09-09T07:14:45.330Z,86.10
2018-09-09T07:17:14.723Z,84.90
2018-09-09T07:19:43.784Z,85.30
2018-09-09T07:22:21.008Z,85.50
2018-09-09T07:24:54.756Z,86.00
2018-09-09T07:27:32.671Z,86.80
2018-09-09T07:30:13.824Z,87.80
2018-09-09T07:32:43.047Z,88.00
2018-09-09T07:35:12.310Z,88.40
2018-09-09T07:37:41.281Z,88.90
2018-09-09T07:40:10.309Z,88.30
2018-09-09T07:42:43.080Z,88.40
2018-09-09T07:45:12.339Z,88.30
2018-09-09T07:47:45.976Z,88.60
2018-09-09T07:50:19.272Z,89.20
2018-09-09T07:52:49.208Z,88.40
2018-09-09T07:55:20.796Z,87.10
2018-09-09T07:57:50.981Z,85.30
2018-09-09T08:00:22.323Z,85.50
2018-09-09T08:02:51.620Z,85.00
2018-09-09T08:05:23.632Z,84.60
2018-09-09T08:07:53.291Z,84.90
2018-09-09T08:10:22.268Z,86.40
2018-09-09T08:12:51.483Z,85.40
2018-09-09T08:15:20.992Z,83.80
2018-09-09T08:17:50.091Z,83.10
2018-09-09T08:20:19.144Z,83.00
2018-09-09T08:22:48.116Z,82.50
2018-09-09T08:25:17.645Z,81.90
2018-09-09T08:27:46.636Z,82.10
2018-09-09T08:30:15.752Z,82.20
2018-09-09T08:32:44.677Z,81.20
2018-09-09T08:35:13.710Z,80.40
2018-09-09T08:37:42.875Z,79.90
2018-09-09T08:40:14.817Z,79.80
2018-09-09T08:42:45.473Z,79.10
2018-09-09T08:45:16.141Z,78.10
2018-09-09T08:47:46.398Z,77.70
2018-09-09T08:50:16.471Z,76.80
2018-09-09T08:52:45.664Z,76.10
2018-09-09T08:55:14.860Z,78.00
2018-09-09T08:57:45.044Z,77.10
2018-09-09T09:00:14.243Z,77.80
2018-09-09T09:02:43.308Z,77.50
2018-09-09T09:05:12.316Z,76.80
2018-09-09T09:07:41.639Z,74.70
2018-09-09T09:10:11.472Z,73.60
2018-09-09T09:12:41.224Z,74.30
2018-09-09T09:15:10.390Z,74.90
2018-09-09T09:17:40.090Z,75.70
2018-09-09T09:20:09.485Z,74.40
2018-09-09T09:22:38.848Z,73.00
2018-09-09T09:25:08.166Z,72.40
2018-09-09T09:27:37.243Z,71.60
2018-09-09T09:30:06.751Z,72.70
2018-09-09T09:32:36.034Z,71.20
2018-09-09T09:35:05.426Z,72.20
2018-09-09T09:37:34.594Z,72.70
2018-09-09T09:40:03.806Z,71.50
2018-09-09T09:42:33.662Z,71.70
2018-09-09T09:45:04.396Z,71.60
2018-09-09T09:47:34.465Z,72.20
2018-09-09T09:50:03.820Z,70.20
2018-09-09T09:52:32.965Z,70.90
2018-09-09T09:55:02.235Z,69.60
2018-09-09T09:57:31.356Z,71.40
2018-09-09T10:00:01.097Z,70.90
2018-09-09T10:02:30.123Z,68.90
2018-09-09T10:04:59.312Z,68.20
2018-09-09T10:07:28.677Z,66.70
2018-09-09T10:09:58.196Z,67.50
2018-09-09T10:12:27.282Z,66.00
2018-09-09T10:14:57.534Z,66.20
2018-09-09T10:17:26.682Z,65.40
2018-09-09T10:19:55.928Z,65.40
2018-09-09T10:22:25.133Z,65.50
2018-09-09T10:24:54.444Z,63.90
2018-09-09T10:27:23.933Z,63.00
2018-09-09T10:29:53.332Z,62.10
2018-09-09T10:32:22.891Z,61.40
2018-09-09T10:34:52.293Z,60.90
2018-09-09T10:37:21.367Z,61.10
2018-09-09T10:39:51.196Z,61.30
2018-09-09T10:42:20.560Z,60.30
2018-09-09T10:44:50.180Z,59.80
2018-09-09T10:47:19.636Z,58.40
2018-09-09T10:49:48.674Z,60.10
2018-09-09T10:52:23.424Z,59.00
2018-09-09T10:54:52.550Z,58.00
2018-09-09T10:57:21.630Z,57.80
2018-09-09T10:59:50.751Z,57.80
2018-09-09T11:02:20.109Z,56.30
2018-09-09T11:04:49.184Z,58.00
2018-09-09T11:07:18.671Z,56.50
2018-09-09T11:09:47.704Z,56.90
2018-09-09T11:12:18.582Z,57.40
2018-09-09T11:14:47.608Z,56.60
2018-09-09T11:17:16.888Z,56.10
2018-09-09T11:19:46.053Z,55.30
2018-09-09T11:22:15.040Z,54.60
2018-09-09T11:24:44.082Z,55.40
2018-09-09T11:27:13.251Z,54.80
2018-09-09T11:29:42.395Z,54.50
2018-09-09T11:32:11.761Z,54.40
2018-09-09T11:34:40.947Z,54.20
2018-09-09T11:37:10.012Z,54.00
2018-09-09T11:39:39.424Z,53.80
2018-09-09T11:42:08.484Z,54.20
2018-09-09T11:44:37.559Z,54.30
2018-09-09T11:47:06.663Z,54.80
2018-09-09T11:49:35.854Z,54.80
2018-09-09T11:52:05.022Z,54.50
2018-09-09T11:54:34.265Z,53.70
2018-09-09T11:57:03.832Z,52.70
2018-09-09T11:59:33.010Z,52.30
2018-09-09T12:02:02.255Z,51.60
2018-09-09T12:04:31.500Z,51.40
2018-09-09T12:12:46.937Z,50.90
2018-09-09T12:32:40.389Z,49.30
2018-09-09T12:57:20.649Z,48.00
2018-09-09T12:59:49.729Z,48.00
2018-09-09T13:02:18.769Z,48.30
2018-09-09T13:07:22.388Z,47.70
2018-09-09T13:09:51.577Z,47.70
2018-09-09T13:12:20.707Z,47.90
2018-09-09T13:14:49.894Z,48.00
2018-09-09T13:17:18.940Z,47.20
2018-09-09T13:19:48.020Z,46.80
2018-09-09T13:22:17.120Z,46.20
2018-09-09T13:24:46.277Z,47.10
2018-09-09T13:27:15.712Z,46.80
2018-09-09T13:29:46.561Z,46.30
2018-09-09T13:32:15.670Z,45.90
2018-09-09T13:34:45.404Z,45.00
2018-09-09T13:37:14.542Z,45.00
2018-09-09T13:39:44.313Z,44.30
2018-09-09T13:42:14.326Z,44.90
2018-09-09T13:44:43.489Z,44.80
2018-09-09T13:47:12.552Z,44.20
2018-09-09T13:52:48.083Z,42.80
2018-09-09T13:55:17.170Z,42.70
2018-09-09T13:57:46.485Z,42.10
2018-09-09T14:00:19.174Z,42.80
2018-09-09T14:02:54.315Z,42.00
2018-09-09T14:05:41.915Z,42.60
2018-09-09T14:11:36.944Z,42.80
2018-09-09T14:14:06.056Z,44.00
2018-09-09T14:16:35.973Z,44.20
2018-09-09T14:19:05.001Z,43.90
2018-09-09T14:21:34.091Z,44.10
2018-09-09T14:24:03.166Z,43.70
2018-09-09T14:26:32.858Z,42.40
2018-09-09T14:29:02.266Z,43.10
2018-09-09T14:31:31.311Z,43.00
2018-09-09T14:34:00.301Z,43.50
2018-09-09T14:36:29.302Z,44.00
2018-09-09T14:38:58.309Z,45.50
2018-09-09T14:41:27.809Z,43.70
2018-09-09T14:43:56.790Z,43.10
2018-09-09T14:46:25.758Z,42.10
2018-09-09T14:48:54.781Z,41.70
2018-09-09T14:51:23.826Z,41.80
2018-09-09T14:53:52.792Z,41.70
2018-09-09T14:56:21.801Z,40.40
2018-09-09T14:58:50.924Z,39.40
2018-09-09T15:01:20.035Z,39.00
2018-09-09T15:03:49.444Z,38.30
2018-09-09T15:06:18.874Z,38.10
2018-09-09T15:08:47.873Z,38.50
2018-09-09T15:11:17.093Z,38.70
2018-09-09T15:13:46.153Z,38.70
2018-09-09T15:16:15.112Z,39.20
2018-09-09T15:18:46.082Z,38.70
2018-09-09T15:21:15.106Z,37.50
2018-09-09T15:23:44.113Z,37.50
2018-09-09T15:26:13.153Z,39.30
2018-09-09T15:28:42.148Z,40.20
2018-09-09T15:31:11.221Z,40.50
2018-09-09T15:33:40.221Z,40.40
2018-09-09T15:36:09.952Z,39.60
2018-09-09T15:38:38.945Z,37.80
2018-09-09T15:41:07.908Z,36.70
2018-09-09T15:43:36.931Z,35.80
2018-09-09T15:46:05.968Z,34.70
2018-09-09T15:48:34.981Z,35.20
2018-09-09T15:51:04.191Z,34.80
2018-09-09T15:53:33.225Z,34.70
2018-09-09T15:56:02.281Z,34.90
2018-09-09T15:58:31.316Z,34.40
2018-09-09T16:01:00.452Z,34.30
2018-09-09T16:03:29.457Z,34.60
2018-09-09T16:05:58.510Z,33.90
2018-09-09T16:08:28.593Z,34.40
2018-09-09T16:10:58.073Z,33.80
2018-09-09T16:13:27.086Z,32.80
2018-09-09T16:15:56.154Z,32.50
2018-09-09T16:18:25.211Z,33.70
2018-09-09T16:20:54.246Z,36.60
2018-09-09T16:23:23.332Z,40.20
2018-09-09T16:25:52.823Z,43.80
2018-09-09T16:28:21.897Z,46.60
2018-09-09T16:30:51.107Z,48.60
2018-09-09T16:33:20.280Z,50.30
2018-09-09T16:35:49.330Z,51.80
2018-09-09T16:38:18.308Z,52.50
2018-09-09T16:40:47.316Z,54.60
2018-09-09T16:43:16.317Z,54.60
2018-09-09T16:45:45.436Z,55.10
2018-09-09T16:48:14.440Z,55.80
2018-09-09T16:50:43.461Z,57.30
2018-09-09T16:53:13.119Z,58.90
2018-09-09T16:55:42.430Z,60.00
2018-09-09T16:58:11.693Z,61.10
2018-09-09T17:00:40.728Z,62.00
2018-09-09T17:03:09.733Z,63.10
2018-09-09T17:05:38.745Z,64.40
2018-09-09T17:08:07.880Z,65.20
2018-09-09T17:10:36.845Z,66.10
2018-09-09T17:13:05.890Z,67.00
2018-09-09T17:15:34.905Z,67.40
2018-09-09T17:18:03.879Z,68.20
2018-09-09T17:20:32.977Z,69.00
2018-09-09T17:23:02.025Z,69.20
2018-09-09T17:25:31.008Z,69.60
2018-09-09T17:28:00.031Z,70.00
2018-09-09T17:30:29.016Z,70.40
2018-09-09T17:32:58.078Z,71.10
2018-09-09T17:35:27.046Z,71.80
2018-09-09T17:37:56.085Z,72.10
2018-09-09T17:40:25.091Z,72.30
2018-09-09T17:42:54.094Z,72.90
2018-09-09T17:45:23.206Z,74.10
2018-09-09T17:47:52.272Z,76.00
2018-09-09T17:50:21.333Z,76.30
2018-09-09T17:52:50.449Z,76.40
2018-09-09T17:55:19.417Z,76.70
2018-09-09T17:57:48.425Z,77.00
2018-09-09T18:00:17.415Z,77.50
2018-09-09T18:02:46.470Z,77.90
2018-09-09T18:05:15.457Z,78.30
2018-09-09T18:07:44.443Z,78.40
2018-09-09T18:10:13.461Z,79.40
2018-09-09T18:12:42.473Z,80.20
2018-09-09T18:15:11.501Z,81.00
2018-09-09T18:17:40.568Z,81.30
2018-09-09T18:20:09.771Z,82.00
2018-09-09T18:22:38.989Z,82.70
2018-09-09T18:25:08.471Z,83.40
2018-09-09T18:27:37.558Z,83.70
2018-09-09T18:30:06.981Z,84.20
2018-09-09T18:32:35.972Z,84.60
2018-09-09T18:35:05.154Z,84.50
2018-09-09T18:37:34.140Z,85.20
2018-09-09T18:40:03.193Z,85.50
2018-09-09T18:42:32.181Z,85.90
2018-09-09T18:45:01.279Z,86.10
2018-09-09T18:47:30.352Z,85.80
2018-09-09T18:49:59.363Z,86.00
2018-09-09T18:52:28.400Z,86.30
2018-09-09T18:54:57.437Z,86.60
2018-09-09T18:57:26.607Z,87.00
2018-09-09T18:59:55.797Z,86.90
2018-09-09T19:02:24.805Z,87.10
2018-09-09T19:04:53.872Z,87.40
2018-09-09T19:07:23.576Z,87.60
2018-09-09T19:09:53.588Z,88.00
2018-09-09T19:12:22.684Z,88.00
2018-09-09T19:14:51.845Z,88.10
2018-09-09T19:17:20.973Z,88.40
2018-09-09T19:19:50.086Z,89.20
2018-09-09T19:22:19.190Z,89.60
2018-09-09T19:24:48.232Z,90.10
2018-09-09T19:27:17.296Z,90.30
2018-09-09T19:29:46.383Z,90.40
2018-09-09T19:32:15.449Z,90.50
2018-09-09T19:34:44.979Z,90.50
2018-09-09T19:37:14.168Z,90.40
2018-09-09T19:39:43.462Z,90.60
2018-09-09T19:42:14.134Z,90.80
2018-09-09T19:44:43.426Z,90.90
2018-09-09T19:47:12.623Z,91.00
2018-09-09T19:49:41.773Z,91.00
2018-09-09T19:52:10.835Z,91.10
2018-09-09T19:54:39.961Z,91.10
2018-09-09T19:57:10.129Z,91.30
2018-09-09T19:59:39.554Z,91.40
2018-09-09T20:02:08.725Z,91.50
2018-09-09T20:04:37.751Z,91.60
2018-09-09T20:07:06.814Z,91.60
2018-09-09T20:09:35.838Z,91.70
2018-09-09T20:12:04.875Z,91.80
2018-09-09T20:14:33.941Z,91.80
2018-09-09T20:17:03.053Z,91.90
2018-09-09T20:19:32.065Z,92.00
2018-09-09T20:22:01.103Z,92.10
2018-09-09T20:24:30.241Z,92.10
2018-09-09T20:26:59.240Z,92.20
2018-09-09T20:29:28.241Z,92.50
2018-09-09T20:31:57.405Z,92.40
2018-09-09T20:34:26.460Z,92.40
2018-09-09T20:36:55.501Z,92.50
2018-09-09T20:39:24.534Z,92.50
2018-09-09T20:41:53.623Z,92.50
2018-09-09T20:44:22.659Z,92.50
2018-09-09T20:46:52.314Z,92.60
2018-09-09T20:49:21.626Z,92.60
2018-09-09T20:51:51.331Z,92.80
2018-09-09T20:54:20.641Z,92.80
2018-09-09T20:56:49.666Z,92.90
2018-09-09T20:59:18.667Z,93.00
2018-09-09T21:01:47.748Z,93.00
2018-09-09T21:04:17.792Z,93.10
2018-09-09T21:06:46.941Z,93.20
2018-09-09T21:09:15.957Z,93.40
2018-09-09T21:11:44.953Z,93.40
2018-09-09T21:14:14.721Z,93.40
2018-09-09T21:16:43.978Z,93.40
2018-09-09T21:19:13.009Z,93.50
2018-09-09T21:21:41.988Z,93.50
2018-09-09T21:24:10.989Z,93.50
2018-09-09T21:26:39.976Z,93.50
2018-09-09T21:29:09.029Z,93.80
2018-09-09T21:31:38.174Z,93.90
2018-09-09T21:34:07.231Z,93.80
2018-09-09T21:36:36.246Z,93.80
2018-09-09T21:39:08.108Z,93.90
2018-09-09T21:41:37.424Z,93.90
2018-09-09T21:44:06.482Z,93.80
2018-09-09T21:46:35.502Z,93.80
2018-09-09T21:49:04.553Z,93.70
2018-09-09T21:51:33.541Z,93.90
2018-09-09T21:54:02.521Z,93.90
2018-09-09T21:56:31.536Z,94.10
2018-09-09T21:59:00.524Z,94.30
2018-09-09T22:02:36.407Z,94.30
2018-09-09T22:05:05.477Z,94.40
2018-09-09T22:07:34.497Z,94.20
2018-09-09T22:10:03.526Z,94.20
2018-09-09T22:12:32.585Z,94.20
2018-09-09T22:15:01.613Z,94.20
2018-09-09T22:17:30.593Z,94.30
2018-09-09T22:19:59.608Z,94.30
2018-09-09T22:22:28.649Z,94.20
2018-09-09T22:24:57.647Z,94.30
2018-09-09T22:27:26.700Z,94.40
2018-09-09T22:29:55.689Z,94.50
2018-09-09T22:32:24.700Z,94.40
2018-09-09T22:34:53.781Z,94.40
2018-09-09T22:37:22.809Z,94.40
2018-09-09T22:39:51.789Z,94.50
2018-09-09T22:42:20.934Z,94.60
2018-09-09T22:44:49.937Z,94.60
2018-09-09T22:47:18.932Z,94.70
2018-09-09T22:49:47.932Z,94.70
2018-09-09T22:52:16.913Z,94.70
2018-09-09T22:54:45.901Z,94.60
2018-09-09T22:57:14.928Z,94.70
2018-09-09T22:59:43.932Z,94.70
2018-09-09T23:02:12.937Z,94.60
2018-09-09T23:04:41.945Z,94.60
2018-09-09T23:07:10.967Z,94.60
2018-09-09T23:09:40.030Z,94.60
2018-09-09T23:12:09.037Z,94.70
2018-09-09T23:14:38.072Z,94.60
2018-09-09T23:17:07.090Z,94.60
2018-09-09T23:19:36.169Z,94.90
2018-09-09T23:22:05.173Z,94.80
2018-09-09T23:24:34.193Z,94.60
2018-09-09T23:27:03.262Z,94.70
2018-09-09T23:29:32.281Z,94.70
2018-09-09T23:32:01.312Z,94.70
2018-09-09T23:34:30.390Z,94.80
2018-09-09T23:36:59.398Z,94.80
2018-09-09T23:39:28.426Z,94.90
2018-09-09T23:41:57.423Z,95.00
2018-09-09T23:44:26.392Z,95.00
2018-09-09T23:46:55.841Z,95.00
2018-09-09T23:49:24.885Z,95.00
2018-09-09T23:51:53.876Z,95.10
2018-09-09T23:54:22.864Z,95.20
2018-09-09T23:56:51.930Z,95.20
2018-09-09T23:59:21.055Z,95.20
